sensor_id;sensor_type;location;lat;lon;timestamp;pressure;altitude;pressure_sealevel;temperature;humidity
69316;BME280;56445;43.552;5.034;2023-05-09T07:43:13;101483.94;;;36.08;20.53
69316;BME280;56445;43.552;5.034;2023-05-09T07:45:40;101497.41;;;36.34;20.46
69316;BME280;56445;43.552;5.034;2023-05-09T07:48:07;101491.91;;;36.41;20.21
69316;BME280;56445;43.552;5.034;2023-05-09T07:50:35;101504.66;;;36.55;20.28
69316;BME280;56445;43.552;5.034;2023-05-09T07:53:02;101490.69;;;36.58;20.31
69316;BME280;56445;43.552;5.034;2023-05-09T07:55:29;101485.06;;;36.58;20.21
69316;BME280;56445;43.552;5.034;2023-05-09T07:57:56;101487.28;;;36.68;20.17
69316;BME280;56445;43.552;5.034;2023-05-09T08:00:23;101499.63;;;36.83;20.28
69316;BME280;56445;43.552;5.034;2023-05-09T08:02:51;101486.69;;;36.79;20.39
69316;BME280;56445;43.552;5.034;2023-05-09T08:05:18;101477.50;;;36.82;20.36
69316;BME280;56445;43.552;5.034;2023-05-09T08:07:45;101484.09;;;36.89;20.01
69316;BME280;56445;43.552;5.034;2023-05-09T08:10:12;101488.13;;;36.92;20.61
69316;BME280;56445;43.552;5.034;2023-05-09T08:12:39;101488.28;;;36.99;20.57
69316;BME280;56445;43.552;5.034;2023-05-09T08:15:08;101506.97;;;37.11;20.70
69316;BME280;56445;43.552;5.034;2023-05-09T08:17:35;101511.56;;;37.19;20.60
69316;BME280;56445;43.552;5.034;2023-05-09T08:20:02;101494.69;;;37.19;20.39
69316;BME280;56445;43.552;5.034;2023-05-09T08:22:31;101506.50;;;37.28;20.17
69316;BME280;56445;43.552;5.034;2023-05-09T08:24:58;101508.31;;;37.40;20.55
69316;BME280;56445;43.552;5.034;2023-05-09T08:27:25;101490.53;;;37.36;20.24
69316;BME280;56445;43.552;5.034;2023-05-09T08:29:52;101500.34;;;37.46;20.25
69316;BME280;56445;43.552;5.034;2023-05-09T08:32:19;101504.63;;;37.59;20.06
69316;BME280;56445;43.552;5.034;2023-05-09T08:34:46;101488.19;;;37.61;20.35
69316;BME280;56445;43.552;5.034;2023-05-09T08:37:13;101493.09;;;37.68;20.75
69316;BME280;56445;43.552;5.034;2023-05-09T08:39:41;101497.69;;;37.80;20.53
69316;BME280;56445;43.552;5.034;2023-05-09T08:42:08;101494.13;;;37.83;20.38
69316;BME280;56445;43.552;5.034;2023-05-09T08:44:36;101501.44;;;37.87;20.35
69316;BME280;56445;43.552;5.034;2023-05-09T08:47:05;101496.28;;;37.93;20.24
69316;BME280;56445;43.552;5.034;2023-05-09T08:49:34;101504.06;;;38.03;20.41
69316;BME280;56445;43.552;5.034;2023-05-09T08:52:01;101483.94;;;38.01;20.06
69316;BME280;56445;43.552;5.034;2023-05-09T08:54:29;101483.66;;;38.06;20.20
69316;BME280;56445;43.552;5.034;2023-05-09T08:56:56;101484.56;;;38.14;20.32
69316;BME280;56445;43.552;5.034;2023-05-09T08:59:23;101488.59;;;38.17;20.22
69316;BME280;56445;43.552;5.034;2023-05-09T09:01:52;101473.34;;;38.18;20.17
69316;BME280;56445;43.552;5.034;2023-05-09T09:04:21;101470.50;;;38.18;20.12
69316;BME280;56445;43.552;5.034;2023-05-09T09:06:50;101466.06;;;38.17;20.25
69316;BME280;56445;43.552;5.034;2023-05-09T09:09:48;101456.31;;;38.11;20.26
69316;BME280;56445;43.552;5.034;2023-05-09T09:12:25;101484.69;;;38.25;20.04
69316;BME280;56445;43.552;5.034;2023-05-09T09:14:53;101476.66;;;38.27;19.94
69316;BME280;56445;43.552;5.034;2023-05-09T09:17:24;101474.66;;;38.27;19.92
69316;BME280;56445;43.552;5.034;2023-05-09T09:19:56;101455.22;;;38.19;20.19
69316;BME280;56445;43.552;5.034;2023-05-09T09:22:33;101458.81;;;38.16;19.72
69316;BME280;56445;43.552;5.034;2023-05-09T09:25:02;101473.97;;;38.07;20.06
69316;BME280;56445;43.552;5.034;2023-05-09T09:27:33;101478.13;;;38.17;20.45
69316;BME280;56445;43.552;5.034;2023-05-09T09:30:15;101468.28;;;38.04;19.80
69316;BME280;56445;43.552;5.034;2023-05-09T09:32:42;101469.91;;;38.05;20.13
69316;BME280;56445;43.552;5.034;2023-05-09T09:35:10;101458.56;;;37.98;20.12
69316;BME280;56445;43.552;5.034;2023-05-09T09:37:39;101471.63;;;38.09;20.35
69316;BME280;56445;43.552;5.034;2023-05-09T09:40:12;101459.34;;;37.98;20.46
69316;BME280;56445;43.552;5.034;2023-05-09T09:42:46;101479.34;;;38.16;20.46
69316;BME280;56445;43.552;5.034;2023-05-09T09:45:18;101484.69;;;38.25;20.18
69316;BME280;56445;43.552;5.034;2023-05-09T09:48:05;101466.13;;;38.20;19.92
69316;BME280;56445;43.552;5.034;2023-05-09T09:50:40;101468.69;;;38.33;20.02
69316;BME280;56445;43.552;5.034;2023-05-09T09:53:09;101486.69;;;38.55;20.16
69316;BME280;56445;43.552;5.034;2023-05-09T09:56:00;101494.84;;;38.63;20.09
69316;BME280;56445;43.552;5.034;2023-05-09T09:58:27;101462.81;;;38.48;20.25
69316;BME280;56445;43.552;5.034;2023-05-09T10:01:10;101486.78;;;38.62;19.91
69316;BME280;56445;43.552;5.034;2023-05-09T10:03:45;101481.91;;;38.59;19.81
69316;BME280;56445;43.552;5.034;2023-05-09T10:06:16;101470.97;;;38.54;19.84
69316;BME280;56445;43.552;5.034;2023-05-09T10:08:44;101481.19;;;38.65;20.19
69316;BME280;56445;43.552;5.034;2023-05-09T10:11:38;101474.75;;;38.68;20.08
69316;BME280;56445;43.552;5.034;2023-05-09T10:17:03;101473.41;;;38.96;19.82
69316;BME280;56445;43.552;5.034;2023-05-09T10:19:51;101446.00;;;38.93;20.27
69316;BME280;56445;43.552;5.034;2023-05-09T10:22:38;101432.50;;;39.13;19.52
69316;BME280;56445;43.552;5.034;2023-05-09T10:40:50;101425.63;;;40.39;19.96
69316;BME280;56445;43.552;5.034;2023-05-09T10:47:27;101450.91;;;40.11;19.89
69316;BME280;56445;43.552;5.034;2023-05-09T10:50:25;101432.19;;;39.81;19.65
69316;BME280;56445;43.552;5.034;2023-05-09T10:53:39;101420.03;;;39.70;19.75
69316;BME280;56445;43.552;5.034;2023-05-09T10:56:28;101441.78;;;39.69;19.92
69316;BME280;56445;43.552;5.034;2023-05-09T10:59:02;101424.72;;;39.47;19.88
69316;BME280;56445;43.552;5.034;2023-05-09T11:01:44;101418.25;;;39.43;19.67
69316;BME280;56445;43.552;5.034;2023-05-09T11:04:13;101423.56;;;39.52;19.78
69316;BME280;56445;43.552;5.034;2023-05-09T11:06:50;101435.25;;;39.54;19.77
69316;BME280;56445;43.552;5.034;2023-05-09T11:09:33;101439.34;;;39.60;19.75
69316;BME280;56445;43.552;5.034;2023-05-09T11:14:38;101431.19;;;39.48;19.81
69316;BME280;56445;43.552;5.034;2023-05-09T11:22:19;101444.03;;;39.42;19.57
69316;BME280;56445;43.552;5.034;2023-05-09T11:24:51;101429.81;;;39.31;19.88
69316;BME280;56445;43.552;5.034;2023-05-09T11:27:26;101432.66;;;39.35;19.80
69316;BME280;56445;43.552;5.034;2023-05-09T11:29:56;101427.28;;;39.15;19.65
69316;BME280;56445;43.552;5.034;2023-05-09T11:32:29;101428.00;;;39.05;19.56
69316;BME280;56445;43.552;5.034;2023-05-09T11:37:52;101428.28;;;38.96;19.38
69316;BME280;56445;43.552;5.034;2023-05-09T11:40:27;101429.13;;;38.97;19.37
69316;BME280;56445;43.552;5.034;2023-05-09T11:42:56;101408.91;;;38.91;19.94
69316;BME280;56445;43.552;5.034;2023-05-09T11:45:29;101409.72;;;38.92;19.73
69316;BME280;56445;43.552;5.034;2023-05-09T11:50:46;101406.56;;;38.97;19.54
69316;BME280;56445;43.552;5.034;2023-05-09T11:53:13;101394.56;;;39.07;19.70
69316;BME280;56445;43.552;5.034;2023-05-09T11:55:40;101394.25;;;39.19;19.45
69316;BME280;56445;43.552;5.034;2023-05-09T11:58:08;101395.56;;;39.33;19.50
69316;BME280;56445;43.552;5.034;2023-05-09T12:00:45;101410.22;;;39.49;19.78
69316;BME280;56445;43.552;5.034;2023-05-09T12:03:12;101389.19;;;39.43;20.04
69316;BME280;56445;43.552;5.034;2023-05-09T12:05:40;101393.66;;;39.44;19.69
69316;BME280;56445;43.552;5.034;2023-05-09T12:08:08;101390.78;;;39.40;19.51
69316;BME280;56445;43.552;5.034;2023-05-09T12:10:37;101386.28;;;39.32;19.56
69316;BME280;56445;43.552;5.034;2023-05-09T12:13:04;101396.38;;;39.33;19.77
69316;BME280;56445;43.552;5.034;2023-05-09T12:15:37;101403.63;;;39.31;19.75
69316;BME280;56445;43.552;5.034;2023-05-09T12:18:06;101408.44;;;39.26;19.46
69316;BME280;56445;43.552;5.034;2023-05-09T12:20:45;101409.63;;;39.25;19.83
69316;BME280;56445;43.552;5.034;2023-05-09T12:23:13;101385.31;;;39.10;19.89
69316;BME280;56445;43.552;5.034;2023-05-09T12:28:15;101400.31;;;39.21;19.97
69316;BME280;56445;43.552;5.034;2023-05-09T12:30:43;101420.56;;;39.31;19.69
69316;BME280;56445;43.552;5.034;2023-05-09T12:33:11;101409.63;;;39.25;20.06
69316;BME280;56445;43.552;5.034;2023-05-09T12:35:38;101412.00;;;39.23;19.77
69316;BME280;56445;43.552;5.034;2023-05-09T12:38:06;101411.19;;;39.19;19.99
69316;BME280;56445;43.552;5.034;2023-05-09T12:40:33;101417.25;;;39.21;19.99
69316;BME280;56445;43.552;5.034;2023-05-09T12:43:00;101402.97;;;39.00;19.94
69316;BME280;56445;43.552;5.034;2023-05-09T12:45:31;101412.19;;;38.97;19.57
69316;BME280;56445;43.552;5.034;2023-05-09T12:47:59;101419.94;;;39.03;19.82
69316;BME280;56445;43.552;5.034;2023-05-09T12:50:31;101416.66;;;38.98;19.91
69316;BME280;56445;43.552;5.034;2023-05-09T12:53:02;101416.66;;;38.98;19.92
69316;BME280;56445;43.552;5.034;2023-05-09T12:55:42;101432.75;;;38.97;19.99
69316;BME280;56445;43.552;5.034;2023-05-09T12:58:13;101435.09;;;38.92;19.77
69316;BME280;56445;43.552;5.034;2023-05-09T13:00:42;101408.81;;;38.80;19.95
69316;BME280;56445;43.552;5.034;2023-05-09T13:05:55;101435.78;;;38.78;20.15
69316;BME280;56445;43.552;5.034;2023-05-09T13:08:23;101446.34;;;38.88;19.84
69316;BME280;56445;43.552;5.034;2023-05-09T13:10:50;101433.75;;;38.78;19.72
69316;BME280;56445;43.552;5.034;2023-05-09T13:13:30;101451.94;;;38.84;19.61
69316;BME280;56445;43.552;5.034;2023-05-09T13:15:57;101434.50;;;38.72;19.96
69316;BME280;56445;43.552;5.034;2023-05-09T13:18:24;101438.94;;;38.73;20.07
69316;BME280;56445;43.552;5.034;2023-05-09T13:20:51;101431.97;;;38.59;19.82
69316;BME280;56445;43.552;5.034;2023-05-09T13:23:18;101444.16;;;38.71;20.06
69316;BME280;56445;43.552;5.034;2023-05-09T13:25:46;101448.06;;;38.59;20.12
69316;BME280;56445;43.552;5.034;2023-05-09T13:28:13;101456.09;;;38.57;19.66
69316;BME280;56445;43.552;5.034;2023-05-09T13:30:41;101431.75;;;38.41;20.19
69316;BME280;56445;43.552;5.034;2023-05-09T13:33:08;101460.88;;;38.53;19.83
69316;BME280;56445;43.552;5.034;2023-05-09T13:35:51;101440.66;;;38.47;19.98
69316;BME280;56445;43.552;5.034;2023-05-09T13:38:19;101436.06;;;38.32;19.91
69316;BME280;56445;43.552;5.034;2023-05-09T13:40:46;101414.59;;;38.20;19.72
69316;BME280;56445;43.552;5.034;2023-05-09T13:43:13;101427.47;;;38.21;19.94
69316;BME280;56445;43.552;5.034;2023-05-09T13:45:45;101452.19;;;38.35;19.79
69316;BME280;56445;43.552;5.034;2023-05-09T13:48:14;101447.66;;;38.26;20.04
69316;BME280;56445;43.552;5.034;2023-05-09T13:50:45;101436.88;;;38.32;20.16
69316;BME280;56445;43.552;5.034;2023-05-09T13:53:58;101452.13;;;38.31;19.88
69316;BME280;56445;43.552;5.034;2023-05-09T13:56:28;101446.06;;;38.29;19.68
69316;BME280;56445;43.552;5.034;2023-05-09T13:58:59;101429.84;;;38.19;20.17
69316;BME280;56445;43.552;5.034;2023-05-09T14:01:27;101437.59;;;38.25;19.76
69316;BME280;56445;43.552;5.034;2023-05-09T14:03:54;101426.63;;;38.17;20.14
69316;BME280;56445;43.552;5.034;2023-05-09T14:06:21;101422.19;;;38.16;20.32
69316;BME280;56445;43.552;5.034;2023-05-09T14:08:50;101420.56;;;38.15;20.17
69316;BME280;56445;43.552;5.034;2023-05-09T14:11:17;101446.06;;;38.29;20.04
69316;BME280;56445;43.552;5.034;2023-05-09T14:13:44;101424.22;;;38.19;20.11
69316;BME280;56445;43.552;5.034;2023-05-09T14:16:14;101442.84;;;38.27;20.38
69316;BME280;56445;43.552;5.034;2023-05-09T14:18:41;101443.63;;;38.24;20.15
69316;BME280;56445;43.552;5.034;2023-05-09T14:21:08;101421.28;;;38.08;20.39
69316;BME280;56445;43.552;5.034;2023-05-09T14:23:36;101428.16;;;38.11;20.40
69316;BME280;56445;43.552;5.034;2023-05-09T14:26:05;101408.22;;;37.96;20.06
69316;BME280;56445;43.552;5.034;2023-05-09T14:28:48;101417.09;;;37.98;19.96
69316;BME280;56445;43.552;5.034;2023-05-09T14:31:15;101418.28;;;37.97;20.16
69316;BME280;56445;43.552;5.034;2023-05-09T14:33:43;101414.28;;;37.98;20.28
69316;BME280;56445;43.552;5.034;2023-05-09T14:36:11;101424.78;;;38.01;20.10
69316;BME280;56445;43.552;5.034;2023-05-09T14:38:38;101424.59;;;37.87;19.97
69316;BME280;56445;43.552;5.034;2023-05-09T14:41:06;101429.47;;;37.90;20.28
69316;BME280;56445;43.552;5.034;2023-05-09T14:43:34;101419.69;;;37.80;19.81
69316;BME280;56445;43.552;5.034;2023-05-09T14:46:01;101400.19;;;37.68;20.11
69316;BME280;56445;43.552;5.034;2023-05-09T14:48:29;101426.88;;;37.78;20.05
69316;BME280;56445;43.552;5.034;2023-05-09T14:50:59;101412.28;;;37.68;20.33
69316;BME280;56445;43.552;5.034;2023-05-09T14:53:27;101397.19;;;37.57;20.05
69316;BME280;56445;43.552;5.034;2023-05-09T14:56:00;101432.03;;;37.72;20.25
69316;BME280;56445;43.552;5.034;2023-05-09T14:58:28;101399.56;;;37.55;19.94
69316;BME280;56445;43.552;5.034;2023-05-09T15:00:57;101401.66;;;37.58;20.33
69316;BME280;56445;43.552;5.034;2023-05-09T15:03:24;101411.28;;;37.57;20.13
69316;BME280;56445;43.552;5.034;2023-05-09T15:05:52;101420.47;;;37.54;20.07
69316;BME280;56445;43.552;5.034;2023-05-09T15:08:19;101422.81;;;37.48;20.56
69316;BME280;56445;43.552;5.034;2023-05-09T15:10:46;101435.75;;;37.53;19.83
69316;BME280;56445;43.552;5.034;2023-05-09T15:13:16;101439.31;;;37.50;19.95
69316;BME280;56445;43.552;5.034;2023-05-09T15:15:44;101433.16;;;37.41;20.08
69316;BME280;56445;43.552;5.034;2023-05-09T15:18:11;101450.47;;;37.43;20.01
69316;BME280;56445;43.552;5.034;2023-05-09T15:20:39;101464.84;;;37.38;20.26
69316;BME280;56445;43.552;5.034;2023-05-09T15:23:06;101484.06;;;37.32;20.30
69316;BME280;56445;43.552;5.034;2023-05-09T15:25:33;101464.34;;;37.09;20.05
69316;BME280;56445;43.552;5.034;2023-05-09T15:28:00;101482.84;;;37.10;20.29
69316;BME280;56445;43.552;5.034;2023-05-09T15:30:28;101472.84;;;36.89;19.89
69316;BME280;56445;43.552;5.034;2023-05-09T15:32:55;101481.94;;;36.83;20.36
69316;BME280;56445;43.552;5.034;2023-05-09T15:35:22;101479.66;;;36.69;20.31
69316;BME280;56445;43.552;5.034;2023-05-09T15:37:49;101471.38;;;36.57;20.37
69316;BME280;56445;43.552;5.034;2023-05-09T15:40:16;101491.34;;;36.51;20.27
69316;BME280;56445;43.552;5.034;2023-05-09T15:42:44;101471.72;;;36.36;20.55
69316;BME280;56445;43.552;5.034;2023-05-09T15:45:16;101493.56;;;36.42;20.19
69316;BME280;56445;43.552;5.034;2023-05-09T15:47:47;101479.88;;;36.21;20.25
69316;BME280;56445;43.552;5.034;2023-05-09T15:50:28;101486.59;;;36.17;20.46
69316;BME280;56445;43.552;5.034;2023-05-09T15:52:55;101504.34;;;36.21;20.33
69316;BME280;56445;43.552;5.034;2023-05-09T15:55:23;101493.56;;;36.07;20.11
69316;BME280;56445;43.552;5.034;2023-05-09T15:57:52;101499.28;;;36.10;20.79
69316;BME280;56445;43.552;5.034;2023-05-09T16:00:19;101484.63;;;36.01;20.67
69316;BME280;56445;43.552;5.034;2023-05-09T16:02:46;101482.38;;;35.91;20.52
69316;BME280;56445;43.552;5.034;2023-05-09T16:05:14;101496.56;;;35.98;20.88
69316;BME280;56445;43.552;5.034;2023-05-09T16:07:46;101467.38;;;35.83;20.69
69316;BME280;56445;43.552;5.034;2023-05-09T16:10:22;101458.50;;;35.81;20.88
69316;BME280;56445;43.552;5.034;2023-05-09T16:12:50;101463.75;;;35.83;20.51
69316;BME280;56445;43.552;5.034;2023-05-09T16:15:18;101471.44;;;35.86;20.70
69316;BME280;56445;43.552;5.034;2023-05-09T16:17:45;101467.72;;;35.82;20.66
69316;BME280;56445;43.552;5.034;2023-05-09T16:20:12;101458.72;;;35.72;20.51
69316;BME280;56445;43.552;5.034;2023-05-09T16:22:40;101457.88;;;35.72;20.93
69316;BME280;56445;43.552;5.034;2023-05-09T16:25:15;101467.19;;;35.76;20.55
69316;BME280;56445;43.552;5.034;2023-05-09T16:27:57;101472.44;;;35.78;20.74
69316;BME280;56445;43.552;5.034;2023-05-09T16:30:24;101464.13;;;35.65;20.58
69316;BME280;56445;43.552;5.034;2023-05-09T16:32:51;101481.06;;;35.69;20.99
69316;BME280;56445;43.552;5.034;2023-05-09T16:35:18;101467.53;;;35.59;21.06
69316;BME280;56445;43.552;5.034;2023-05-09T16:37:46;101463.03;;;35.54;20.96
69316;BME280;56445;43.552;5.034;2023-05-09T16:40:13;101462.59;;;35.52;21.00
69316;BME280;56445;43.552;5.034;2023-05-09T16:42:41;101469.38;;;35.51;21.05
69316;BME280;56445;43.552;5.034;2023-05-09T16:45:11;101445.56;;;35.45;20.53
69316;BME280;56445;43.552;5.034;2023-05-09T16:47:38;101462.13;;;35.50;21.00
69316;BME280;56445;43.552;5.034;2023-05-09T16:50:08;101469.38;;;35.51;20.87
69316;BME280;56445;43.552;5.034;2023-05-09T16:52:36;101432.84;;;35.31;20.79
69316;BME280;56445;43.552;5.034;2023-05-09T16:55:03;101452.63;;;35.39;21.09
69316;BME280;56445;43.552;5.034;2023-05-09T16:57:31;101459.59;;;35.45;21.29
69316;BME280;56445;43.552;5.034;2023-05-09T16:59:59;101455.00;;;35.37;21.14
69316;BME280;56445;43.552;5.034;2023-05-09T17:02:26;101450.13;;;35.33;21.13
69316;BME280;56445;43.552;5.034;2023-05-09T17:04:53;101442.88;;;35.32;21.06
69316;BME280;56445;43.552;5.034;2023-05-09T17:07:20;101461.88;;;35.39;21.12
69316;BME280;56445;43.552;5.034;2023-05-09T17:09:48;101462.69;;;35.40;21.17
69316;BME280;56445;43.552;5.034;2023-05-09T17:12:15;101435.47;;;35.24;21.18
69316;BME280;56445;43.552;5.034;2023-05-09T17:14:45;101441.25;;;35.31;21.25
69316;BME280;56445;43.552;5.034;2023-05-09T17:17:14;101457.00;;;35.36;21.18
69316;BME280;56445;43.552;5.034;2023-05-09T17:19:43;101456.34;;;35.27;21.13
69316;BME280;56445;43.552;5.034;2023-05-09T17:22:11;101444.53;;;35.18;21.22
69316;BME280;56445;43.552;5.034;2023-05-09T17:24:38;101450.94;;;35.18;21.35
69316;BME280;56445;43.552;5.034;2023-05-09T17:27:05;101446.00;;;35.15;21.19
69316;BME280;56445;43.552;5.034;2023-05-09T17:29:33;101439.25;;;35.16;21.63
69316;BME280;56445;43.552;5.034;2023-05-09T17:32:00;101416.59;;;35.09;21.39
69316;BME280;56445;43.552;5.034;2023-05-09T17:34:27;101441.06;;;35.24;21.34
69316;BME280;56445;43.552;5.034;2023-05-09T17:36:55;101429.66;;;35.17;21.33
69316;BME280;56445;43.552;5.034;2023-05-09T17:39:22;101399.22;;;35.03;21.13
69316;BME280;56445;43.552;5.034;2023-05-09T17:41:49;101398.63;;;35.10;21.11
69316;BME280;56445;43.552;5.034;2023-05-09T17:44:19;101371.84;;;34.96;21.50
69316;BME280;56445;43.552;5.034;2023-05-09T17:46:47;101382.41;;;35.03;21.15
69316;BME280;56445;43.552;5.034;2023-05-09T17:49:16;101383.41;;;34.95;21.51
69316;BME280;56445;43.552;5.034;2023-05-09T17:51:43;101392.91;;;34.90;21.72
69316;BME280;56445;43.552;5.034;2023-05-09T17:54:10;101405.66;;;34.88;21.68
69316;BME280;56445;43.552;5.034;2023-05-09T17:56:38;101408.81;;;34.86;21.68
69316;BME280;56445;43.552;5.034;2023-05-09T17:59:05;101435.34;;;35.05;22.01
69316;BME280;56445;43.552;5.034;2023-05-09T18:01:33;101435.78;;;35.07;21.59
69316;BME280;56445;43.552;5.034;2023-05-09T18:04:01;101433.06;;;35.10;21.74
69316;BME280;56445;43.552;5.034;2023-05-09T18:06:28;101405.84;;;34.95;21.87
69316;BME280;56445;43.552;5.034;2023-05-09T18:08:55;101436.69;;;35.11;21.67
69316;BME280;56445;43.552;5.034;2023-05-09T18:11:22;101416.25;;;34.94;21.62
69316;BME280;56445;43.552;5.034;2023-05-09T18:13:50;101444.66;;;35.09;21.35
69316;BME280;56445;43.552;5.034;2023-05-09T18:16:17;101443.47;;;35.10;21.64
69316;BME280;56445;43.552;5.034;2023-05-09T18:18:44;101409.03;;;34.93;21.74
69316;BME280;56445;43.552;5.034;2023-05-09T18:21:14;101436.69;;;35.11;21.56
69316;BME280;56445;43.552;5.034;2023-05-09T18:23:41;101414.44;;;35.02;21.89
69316;BME280;56445;43.552;5.034;2023-05-09T18:26:08;101427.81;;;35.09;21.82
69316;BME280;56445;43.552;5.034;2023-05-09T18:28:35;101419.69;;;35.04;21.82
69316;BME280;56445;43.552;5.034;2023-05-09T18:31:07;101425.31;;;35.04;21.83
69316;BME280;56445;43.552;5.034;2023-05-09T18:33:38;101390.91;;;34.91;21.93
69316;BME280;56445;43.552;5.034;2023-05-09T18:36:07;101401.22;;;35.03;21.92
69316;BME280;56445;43.552;5.034;2023-05-09T18:38:37;101397.16;;;35.00;21.95
69316;BME280;56445;43.552;5.034;2023-05-09T18:41:12;101363.78;;;34.79;21.99
69316;BME280;56445;43.552;5.034;2023-05-09T18:43:52;101386.94;;;34.76;21.88
69316;BME280;56445;43.552;5.034;2023-05-09T18:49:41;101399.59;;;34.70;22.01
69316;BME280;56445;43.552;5.034;2023-05-09T18:52:10;101390.66;;;34.80;22.07
69316;BME280;56445;43.552;5.034;2023-05-09T18:54:38;101390.75;;;34.84;22.34
69316;BME280;56445;43.552;5.034;2023-05-09T18:57:08;101405.28;;;34.89;22.14
69316;BME280;56445;43.552;5.034;2023-05-09T18:59:40;101383.69;;;34.74;22.00
69316;BME280;56445;43.552;5.034;2023-05-09T19:02:07;101392.56;;;34.76;21.89
69316;BME280;56445;43.552;5.034;2023-05-09T19:04:35;101403.03;;;34.79;22.16
69316;BME280;56445;43.552;5.034;2023-05-09T19:07:17;101400.56;;;34.78;22.23
69316;BME280;56445;43.552;5.034;2023-05-09T19:09:47;101395.97;;;34.69;22.25
69316;BME280;56445;43.552;5.034;2023-05-09T19:12:23;101389.75;;;34.64;21.99
69316;BME280;56445;43.552;5.034;2023-05-09T19:14:55;101412.88;;;34.73;21.98
69316;BME280;56445;43.552;5.034;2023-05-09T19:17:25;101401.81;;;34.64;22.30
69316;BME280;56445;43.552;5.034;2023-05-09T19:19:54;101422.03;;;34.70;22.29
69316;BME280;56445;43.552;5.034;2023-05-09T19:22:21;101393.56;;;34.55;22.31
69316;BME280;56445;43.552;5.034;2023-05-09T19:24:51;101391.84;;;34.51;22.17
69316;BME280;56445;43.552;5.034;2023-05-09T19:27:19;101399.16;;;34.55;22.27
69316;BME280;56445;43.552;5.034;2023-05-09T19:30:07;101407.66;;;34.59;22.21
69316;BME280;56445;43.552;5.034;2023-05-09T19:32:38;101426.81;;;34.57;22.31
69316;BME280;56445;43.552;5.034;2023-05-09T19:35:10;101396.66;;;34.38;22.20
69316;BME280;56445;43.552;5.034;2023-05-09T19:37:38;101407.97;;;34.42;22.21
69316;BME280;56445;43.552;5.034;2023-05-09T19:40:07;101407.88;;;34.38;22.39
69316;BME280;56445;43.552;5.034;2023-05-09T19:42:35;101437.22;;;34.56;22.18
69316;BME280;56445;43.552;5.034;2023-05-09T19:45:04;101429.53;;;34.53;22.43
69316;BME280;56445;43.552;5.034;2023-05-09T19:47:33;101434.44;;;34.56;22.43
69316;BME280;56445;43.552;5.034;2023-05-09T19:50:05;101434.31;;;34.53;22.58
69316;BME280;56445;43.552;5.034;2023-05-09T19:52:35;101434.31;;;34.53;22.21
69316;BME280;56445;43.552;5.034;2023-05-09T19:55:03;101416.28;;;34.38;22.58
69316;BME280;56445;43.552;5.034;2023-05-09T19:57:33;101427.69;;;34.45;22.47
69316;BME280;56445;43.552;5.034;2023-05-09T20:00:01;101413.28;;;34.31;22.61
69316;BME280;56445;43.552;5.034;2023-05-09T20:02:38;101416.22;;;34.34;22.42
69316;BME280;56445;43.552;5.034;2023-05-09T20:05:06;101424.91;;;34.45;22.45
69316;BME280;56445;43.552;5.034;2023-05-09T20:07:36;101400.56;;;34.33;22.72
69316;BME280;56445;43.552;5.034;2023-05-09T20:10:07;101409.88;;;34.37;22.76
69316;BME280;56445;43.552;5.034;2023-05-09T20:12:37;101404.91;;;34.31;22.50
69316;BME280;56445;43.552;5.034;2023-05-09T20:15:08;101430.84;;;34.44;22.82
69316;BME280;56445;43.552;5.034;2023-05-09T20:17:38;101413.66;;;34.29;22.62
69316;BME280;56445;43.552;5.034;2023-05-09T20:20:08;101426.09;;;34.44;22.67
69316;BME280;56445;43.552;5.034;2023-05-09T20:22:38;101407.41;;;34.36;22.78
69316;BME280;56445;43.552;5.034;2023-05-09T20:25:07;101404.91;;;34.31;22.58
69316;BME280;56445;43.552;5.034;2023-05-09T20:27:35;101413.75;;;34.33;22.82
69316;BME280;56445;43.552;5.034;2023-05-09T20:30:04;101418.63;;;34.36;22.76
69316;BME280;56445;43.552;5.034;2023-05-09T20:32:34;101413.84;;;34.36;22.44
69316;BME280;56445;43.552;5.034;2023-05-09T20:35:04;101404.69;;;34.24;22.63
69316;BME280;56445;43.552;5.034;2023-05-09T20:37:32;101405.59;;;34.28;22.73
69316;BME280;56445;43.552;5.034;2023-05-09T20:40:02;101409.69;;;34.30;22.59
69316;BME280;56445;43.552;5.034;2023-05-09T20:42:34;101409.59;;;34.27;22.42
69316;BME280;56445;43.552;5.034;2023-05-09T20:45:03;101409.81;;;34.22;22.40
69316;BME280;56445;43.552;5.034;2023-05-09T20:47:35;101400.50;;;34.17;22.63
69316;BME280;56445;43.552;5.034;2023-05-09T20:50:04;101383.50;;;33.98;22.63
69316;BME280;56445;43.552;5.034;2023-05-09T20:52:32;101365.31;;;33.92;22.59
69316;BME280;56445;43.552;5.034;2023-05-09T20:55:10;101385.59;;;34.01;22.63
69316;BME280;56445;43.552;5.034;2023-05-09T20:57:37;101393.28;;;34.04;22.57
69316;BME280;56445;43.552;5.034;2023-05-09T21:00:07;101383.78;;;33.93;22.68
69316;BME280;56445;43.552;5.034;2023-05-09T21:02:35;101395.88;;;33.97;22.61
69316;BME280;56445;43.552;5.034;2023-05-09T21:05:03;101388.44;;;33.89;22.79
69316;BME280;56445;43.552;5.034;2023-05-09T21:07:34;101369.69;;;33.77;22.65
69316;BME280;56445;43.552;5.034;2023-05-09T21:10:01;101373.31;;;33.77;22.66
69316;BME280;56445;43.552;5.034;2023-05-09T21:12:28;101399.66;;;33.89;22.79
69316;BME280;56445;43.552;5.034;2023-05-09T21:14:56;101403.59;;;33.88;22.63
69316;BME280;56445;43.552;5.034;2023-05-09T21:17:23;101381.25;;;33.75;22.68
69316;BME280;56445;43.552;5.034;2023-05-09T21:19:53;101395.13;;;33.72;22.99
69316;BME280;56445;43.552;5.034;2023-05-09T21:22:23;101408.28;;;33.84;22.68
69316;BME280;56445;43.552;5.034;2023-05-09T21:27:53;101369.81;;;33.56;23.04
69316;BME280;56445;43.552;5.034;2023-05-09T21:30:20;101376.94;;;33.66;22.81
69316;BME280;56445;43.552;5.034;2023-05-09T21:32:51;101398.69;;;33.85;22.89
69316;BME280;56445;43.552;5.034;2023-05-09T21:35:25;101398.47;;;33.90;23.18